Abis Cuxhaven — PBYB — position and weather

sailwx.info

Track history (hours):
 
Tides and Currents Weather Stations Pressure Air Temp Water Temp Dewpoint Dewpoint Depression Visibility Wind Speed Wind Dir Waves Ship Positions

Abis Cuxhaven

Last reported at 2014-Jul-28 20:33 UTC. Time now 2014-Jul-28 20:37 UTC.
Position N 35°56' W 005°20'.

Length 114 m; draft 6.4 m.

Type: Cargo ship. MMSI: 246670000.

Date/timePositionNaut miles runAvg speedWind from/ knotsBaromVisibWave heightAir tempDewpointWater temp
2014-Jul-28 20:33N 35°56' W 005°20'2 2.1
2014-Jul-28 19:33N 35°54' W 005°18'0 0.0
2014-Jul-28 18:33N 35°54' W 005°18'0 0.0
2014-Jul-28 17:33N 35°54' W 005°18'0 0.0
2014-Jul-28 16:33N 35°54' W 005°18'0 0.0
2014-Jul-28 15:33N 35°54' W 005°18'1 0.6
2014-Jul-28 14:33N 35°54' W 005°18'324 9.3
2014-Jul-27 03:31N 36°44' E 001°19'49 9.9
2014-Jul-26 22:33N 36°52' E 002°20'10 9.7
2014-Jul-26 21:33N 36°53' E 002°32'60 9.8
2014-Jul-26 15:30N 37°02' E 003°45'9 9.3
2014-Jul-26 14:33N 37°03' E 003°56'9 9.4
2014-Jul-26 13:33N 37°05' E 004°08'10 9.5
2014-Jul-26 12:32N 37°06' E 004°20'198 9.8
2014-Jul-25 16:21N 37°36' E 008°26'910.4
2014-Jul-25 15:30N 37°37' E 008°37'1410.0
2014-Jul-25 14:07N 37°37' E 008°54'8 9.7
2014-Jul-25 13:15N 37°38' E 009°05'7 9.7
2014-Jul-25 12:33N 37°38' E 009°13'10 9.7
2014-Jul-25 11:33N 37°38' E 009°26'10 9.4
2014-Jul-25 10:32N 37°38' E 009°38'9 9.3
2014-Jul-25 09:33N 37°38' E 009°49'9 9.4
2014-Jul-25 08:33N 37°38' E 010°01'10 9.6
2014-Jul-25 07:33N 37°38' E 010°13'1111.1
2014-Jul-25 06:33N 37°35' E 010°27'10 9.6
2014-Jul-25 05:32N 37°33' E 010°39'10 9.9
2014-Jul-25 04:33N 37°31' E 010°51'9010.1
2014-Jul-24 19:33N 37°06' E 012°40'1010.2
2014-Jul-24 18:33N 37°03' E 012°52'1010.0
2014-Jul-24 17:33N 37°01' E 013°05'1010.0
2014-Jul-24 16:33N 36°58' E 013°17'10 9.9
2014-Jul-24 15:33N 36°55' E 013°29'1010.0
2014-Jul-24 14:33N 36°53' E 013°41'10 9.7
2014-Jul-24 13:33N 36°50' E 013°52'10 9.8
2014-Jul-24 12:33N 36°48' E 014°04'9 9.5
2014-Jul-24 11:33N 36°46' E 014°16'9 9.2
2014-Jul-24 10:33N 36°43' E 014°27'427 9.5
2014-Jul-22 13:27N 36°32' E 023°18'20 9.9
2014-Jul-22 11:25N 36°49' E 023°31'10 9.8
2014-Jul-22 10:25N 36°57' E 023°37'9 9.9
2014-Jul-22 09:28N 37°05' E 023°43'3210.8
2014-Jul-22 06:32N 37°32' E 024°04'2310.3
2014-Jul-22 04:19N 37°49' E 024°23'6810.1
2014-Jul-21 21:32N 38°47' E 025°09'  
Track history (hours):
 
Tides and Currents Weather Stations Pressure Air Temp Water Temp Dewpoint Dewpoint Depression Visibility Wind Speed Wind Dir Waves Ship Positions

Abis Cuxhaven

Last reported at 2014-Jul-28 20:33 UTC. Time now 2014-Jul-28 20:37 UTC.
Position N 35°56' W 005°20'.

Length 114 m; draft 6.4 m.

Type: Cargo ship. MMSI: 246670000.

Date/timePositionNaut miles runAvg speedWind from/ knotsBaromVisibWave heightAir tempDewpointWater temp
2014-Jul-28 20:33N 35°56' W 005°20'2 2.1
2014-Jul-28 19:33N 35°54' W 005°18'0 0.0
2014-Jul-28 18:33N 35°54' W 005°18'0 0.0
2014-Jul-28 17:33N 35°54' W 005°18'0 0.0
2014-Jul-28 16:33N 35°54' W 005°18'0 0.0
2014-Jul-28 15:33N 35°54' W 005°18'1 0.6
2014-Jul-28 14:33N 35°54' W 005°18'324 9.3
2014-Jul-27 03:31N 36°44' E 001°19'49 9.9
2014-Jul-26 22:33N 36°52' E 002°20'10 9.7
2014-Jul-26 21:33N 36°53' E 002°32'60 9.8
2014-Jul-26 15:30N 37°02' E 003°45'9 9.3
2014-Jul-26 14:33N 37°03' E 003°56'9 9.4
2014-Jul-26 13:33N 37°05' E 004°08'10 9.5
2014-Jul-26 12:32N 37°06' E 004°20'198 9.8
2014-Jul-25 16:21N 37°36' E 008°26'910.4
2014-Jul-25 15:30N 37°37' E 008°37'1410.0
2014-Jul-25 14:07N 37°37' E 008°54'8 9.7
2014-Jul-25 13:15N 37°38' E 009°05'7 9.7
2014-Jul-25 12:33N 37°38' E 009°13'10 9.7
2014-Jul-25 11:33N 37°38' E 009°26'10 9.4
2014-Jul-25 10:32N 37°38' E 009°38'9 9.3
2014-Jul-25 09:33N 37°38' E 009°49'9 9.4
2014-Jul-25 08:33N 37°38' E 010°01'10 9.6
2014-Jul-25 07:33N 37°38' E 010°13'1111.1
2014-Jul-25 06:33N 37°35' E 010°27'10 9.6
2014-Jul-25 05:32N 37°33' E 010°39'10 9.9
2014-Jul-25 04:33N 37°31' E 010°51'9010.1
2014-Jul-24 19:33N 37°06' E 012°40'1010.2
2014-Jul-24 18:33N 37°03' E 012°52'1010.0
2014-Jul-24 17:33N 37°01' E 013°05'1010.0
2014-Jul-24 16:33N 36°58' E 013°17'10 9.9
2014-Jul-24 15:33N 36°55' E 013°29'1010.0
2014-Jul-24 14:33N 36°53' E 013°41'10 9.7
2014-Jul-24 13:33N 36°50' E 013°52'10 9.8
2014-Jul-24 12:33N 36°48' E 014°04'9 9.5
2014-Jul-24 11:33N 36°46' E 014°16'9 9.2
2014-Jul-24 10:33N 36°43' E 014°27'427 9.5
2014-Jul-22 13:27N 36°32' E 023°18'20 9.9
2014-Jul-22 11:25N 36°49' E 023°31'10 9.8
2014-Jul-22 10:25N 36°57' E 023°37'9 9.9
2014-Jul-22 09:28N 37°05' E 023°43'3210.8
2014-Jul-22 06:32N 37°32' E 024°04'2310.3
2014-Jul-22 04:19N 37°49' E 024°23'6810.1
2014-Jul-21 21:32N 38°47' E 025°09'  

Dump ship's entire track history